Time;durP1;ratioP1;P1;durP2;ratioP2;P2;SDS_P1;SDS_P2;PMS_P1;PMS_P2;Temp;Humidity;BMP_temperature;BMP_pressure;BME280_temperature;BME280_humidity;BME280_pressure;Samples;Min_cycle;Max_cycle;Signal;HPM_P1;HPM_P2
2021/09/21 00:01:08;;;;;;;6.25;4.20;;;;;;;17.53;68.51;99206.06;5051532;28;20024;-51
2021/09/21 00:03:35;;;;;;;5.63;4.35;;;;;;;17.41;68.71;99219.34;5052701;28;20025;-51
2021/09/21 00:06:03;;;;;;;5.07;4.40;;;;;;;17.22;68.96;99215.97;5052733;28;20029;-51
2021/09/21 00:08:29;;;;;;;5.82;4.72;;;;;;;17.13;69.54;99217.38;5052707;28;20032;-51
2021/09/21 00:10:55;;;;;;;7.60;4.63;;;;;;;17.20;69.76;99215.41;5051350;28;20025;-51
2021/09/21 00:13:21;;;;;;;5.65;5.15;;;;;;;17.34;69.58;99206.19;5052932;28;20093;-50
2021/09/21 00:15:47;;;;;;;6.95;4.63;;;;;;;17.46;69.06;99213.34;5052693;28;20013;-51
2021/09/21 00:18:13;;;;;;;8.75;4.93;;;;;;;17.53;68.87;99204.22;5052311;28;20020;-51
2021/09/21 00:20:38;;;;;;;6.28;5.00;;;;;;;17.62;68.62;99206.50;5050731;28;20049;-50
2021/09/21 00:23:04;;;;;;;9.80;6.10;;;;;;;17.63;68.80;99208.13;5052358;28;20025;-51
2021/09/21 00:25:30;;;;;;;7.85;4.80;;;;;;;17.58;68.77;99209.63;5051077;28;20175;-51
2021/09/21 00:27:55;;;;;;;12.55;6.53;;;;;;;17.62;69.25;99215.25;5052381;28;20135;-51
2021/09/21 00:30:22;;;;;;;10.75;6.50;;;;;;;18.04;68.90;99216.94;5051032;28;20119;-51
2021/09/21 00:32:55;;;;;;;8.23;4.15;;;;;;;18.46;67.40;99214.00;5052225;28;20017;-51
2021/09/21 00:35:20;;;;;;;5.63;3.80;;;;;;;18.41;66.68;99212.06;5052294;28;20041;-51
2021/09/21 00:37:46;;;;;;;6.35;3.95;;;;;;;18.31;66.48;99217.19;5050868;28;20028;-51
2021/09/21 00:40:12;;;;;;;11.35;7.22;;;;;;;18.15;66.88;99216.13;5052117;28;20035;-51
2021/09/21 00:42:44;;;;;;;5.95;3.60;;;;;;;18.12;66.78;99216.56;5050852;28;20029;-51
2021/09/21 00:45:20;;;;;;;7.93;3.92;;;;;;;17.96;66.80;99216.25;5051935;28;20076;-50
2021/09/21 00:47:46;;;;;;;6.35;3.33;;;;;;;17.81;67.41;99223.09;5050830;28;20413;-51
2021/09/21 00:50:12;;;;;;;4.25;3.53;;;;;;;17.63;67.65;99227.50;5050680;28;20032;-51
2021/09/21 00:52:38;;;;;;;8.68;3.42;;;;;;;17.51;67.97;99224.88;5051980;28;20024;-51
2021/09/21 00:55:05;;;;;;;16.42;11.13;;;;;;;17.50;68.19;99235.72;5050655;28;20025;-50
2021/09/21 00:57:31;;;;;;;5.07;3.90;;;;;;;17.44;68.34;99234.78;5050942;28;20390;-50
2021/09/21 00:59:58;;;;;;;6.10;4.55;;;;;;;17.48;68.47;99232.47;5051821;28;20479;-51
2021/09/21 01:02:23;;;;;;;4.03;3.33;;;;;;;17.53;68.27;99238.72;5050575;28;20029;-51
2021/09/21 01:04:49;;;;;;;5.15;3.20;;;;;;;17.54;68.29;99235.00;5050451;28;20031;-51
2021/09/21 01:07:15;;;;;;;7.63;4.85;;;;;;;17.53;68.19;99236.06;5051676;28;20563;-51
2021/09/21 01:09:43;;;;;;;4.40;3.10;;;;;;;17.43;68.08;99243.00;5051786;28;20037;-51
2021/09/21 01:12:09;;;;;;;6.50;3.35;;;;;;;17.31;68.28;99233.19;5051634;28;20025;-50
2021/09/21 01:14:34;;;;;;;3.80;2.55;;;;;;;17.32;68.16;99234.78;5051746;28;20036;-51
2021/09/21 01:17:00;;;;;;;4.57;2.42;;;;;;;17.36;68.04;99230.66;5050367;28;20033;-50
2021/09/21 01:19:26;;;;;;;5.55;2.85;;;;;;;17.42;67.90;99238.72;5050346;28;20029;-51
2021/09/21 01:21:53;;;;;;;7.10;3.90;;;;;;;17.49;67.68;99228.81;5051375;28;20043;-50
2021/09/21 01:24:20;;;;;;;10.55;9.73;;;;;;;17.53;67.35;99228.09;5051531;28;20031;-51
2021/09/21 01:26:47;;;;;;;5.25;3.20;;;;;;;17.48;67.51;99235.94;5051868;28;20120;-51
2021/09/21 01:29:13;;;;;;;4.75;2.42;;;;;;;17.54;67.42;99234.22;5051797;28;20036;-51
2021/09/21 01:31:40;;;;;;;6.28;2.60;;;;;;;17.60;66.94;99238.59;5052152;28;20482;-52
2021/09/21 01:34:09;;;;;;;6.40;2.42;;;;;;;17.46;67.17;99238.00;5055597;28;20072;-51
2021/09/21 01:36:35;;;;;;;6.53;3.00;;;;;;;17.43;67.70;99235.03;5055621;28;20040;-51
2021/09/21 01:39:01;;;;;;;6.10;2.72;;;;;;;17.50;67.40;99239.16;5037769;28;20128;-51
2021/09/21 01:41:27;;;;;;;5.22;3.00;;;;;;;17.52;67.64;99236.28;5055491;28;20104;-51
2021/09/21 01:43:54;;;;;;;4.95;2.63;;;;;;;17.56;67.04;99238.22;5055687;28;20017;-51
2021/09/21 01:46:23;;;;;;;6.10;3.20;;;;;;;17.57;67.46;99239.06;5054130;28;20040;-51
2021/09/21 01:48:49;;;;;;;5.93;2.60;;;;;;;17.48;67.15;99243.09;5055306;28;20515;-51
2021/09/21 01:51:20;;;;;;;13.43;3.63;;;;;;;17.37;67.60;99244.72;5055274;28;20068;-51
2021/09/21 01:59:05;;;;;;;3.70;2.78;;;;;;;17.58;67.22;99253.94;5055282;28;20048;-51
2021/09/21 02:01:31;;;;;;;6.70;3.17;;;;;;;17.61;67.36;99256.13;5054998;28;20115;-51
2021/09/21 02:03:58;;;;;;;23.58;21.13;;;;;;;17.69;67.79;99247.03;5054996;28;20043;-51
2021/09/21 02:06:37;;;;;;;9.13;3.85;;;;;;;18.01;66.39;99246.63;5053761;28;20495;-51
2021/09/21 02:09:05;;;;;;;5.35;2.47;;;;;;;17.90;66.28;99246.41;5054991;28;20119;-51
2021/09/21 02:11:31;;;;;;;4.30;2.60;;;;;;;17.83;66.50;99252.84;5054867;28;20059;-51
2021/09/21 02:13:58;;;;;;;8.07;2.70;;;;;;;17.73;66.54;99242.84;5055086;28;20052;-51
2021/09/21 02:16:25;;;;;;;5.60;3.35;;;;;;;17.54;66.79;99250.13;5053888;28;20021;-51
2021/09/21 02:18:51;;;;;;;5.28;2.70;;;;;;;17.43;67.13;99248.31;5053491;28;20029;-51
2021/09/21 02:21:17;;;;;;;3.78;2.08;;;;;;;17.33;67.40;99248.88;5054529;28;20048;-51
2021/09/21 02:23:43;;;;;;;13.27;7.28;;;;;;;17.31;68.29;99246.44;5054680;28;20029;-51
2021/09/21 02:26:09;;;;;;;18.17;12.40;;;;;;;17.90;67.43;99246.41;5054652;28;20017;-51
2021/09/21 02:28:35;;;;;;;5.07;3.08;;;;;;;18.32;66.27;99246.19;5036929;28;20403;-51
2021/09/21 02:31:00;;;;;;;5.65;3.20;;;;;;;18.32;65.38;99245.38;5053246;28;20414;-51
2021/09/21 02:33:27;;;;;;;7.35;2.95;;;;;;;18.09;65.80;99251.56;5054600;28;20043;-51
2021/09/21 02:35:52;;;;;;;13.82;8.40;;;;;;;17.97;66.09;99251.63;5053150;28;20032;-51
2021/09/21 02:38:18;;;;;;;3.03;2.30;;;;;;;17.87;66.04;99252.22;5054485;28;20021;-51
2021/09/21 02:40:44;;;;;;;5.88;2.65;;;;;;;17.78;66.06;99254.38;5054371;28;20499;-51
2021/09/21 02:43:09;;;;;;;5.03;2.38;;;;;;;17.75;66.23;99246.09;5053713;28;20033;-51
2021/09/21 02:45:35;;;;;;;6.97;4.20;;;;;;;17.68;66.28;99256.00;5052924;28;20021;-51
2021/09/21 02:48:01;;;;;;;53.35;47.97;;;;;;;17.68;66.85;99256.00;5054483;28;20029;-51
2021/09/21 02:50:27;;;;;;;3.47;3.10;;;;;;;17.73;66.37;99259.59;5052865;28;20013;-51
2021/09/21 02:52:54;;;;;;;7.43;2.30;;;;;;;17.76;66.49;99259.09;5054391;28;20017;-51
2021/09/21 02:55:20;;;;;;;6.78;2.92;;;;;;;17.71;66.90;99261.66;5054067;28;20110;-51
2021/09/21 02:57:45;;;;;;;11.93;4.55;;;;;;;17.94;66.99;99262.69;5054053;28;20025;-51
2021/09/21 03:00:14;;;;;;;24.15;21.48;;;;;;;18.08;66.33;99269.34;5053944;28;20048;-51
2021/09/21 03:02:42;;;;;;;7.18;3.50;;;;;;;18.22;65.55;99269.09;5053849;28;20017;-51
2021/09/21 03:05:12;;;;;;;6.75;2.80;;;;;;;18.15;65.40;99267.38;5053896;28;20104;-51
2021/09/21 03:07:40;;;;;;;9.00;4.90;;;;;;;18.11;65.42;99268.91;5052717;28;20032;-51
2021/09/21 03:17:49;;;;;;;10.02;2.10;;;;;;;18.23;65.07;99268.88;5054033;28;20040;-51
2021/09/21 03:20:15;;;;;;;5.70;1.70;;;;;;;18.20;64.50;99264.00;5053578;28;20037;-51
2021/09/21 03:22:40;;;;;;;4.80;2.42;;;;;;;18.15;64.33;99267.38;5053708;28;20039;-51
2021/09/21 03:25:09;;;;;;;8.32;5.07;;;;;;;18.01;64.80;99260.72;5052229;28;20036;-51
2021/09/21 03:27:35;;;;;;;4.60;2.10;;;;;;;17.91;65.04;99263.19;5053496;28;20021;-51
2021/09/21 03:30:00;;;;;;;5.43;1.60;;;;;;;17.85;65.19;99264.91;5053561;28;20482;-51
2021/09/21 03:32:26;;;;;;;6.45;2.67;;;;;;;17.66;65.83;99263.41;5052177;28;20521;-51
2021/09/21 03:34:52;;;;;;;7.53;2.80;;;;;;;17.82;66.02;99256.56;5053387;28;20041;-51
2021/09/21 03:37:18;;;;;;;8.60;5.47;;;;;;;18.02;65.87;99262.31;5052016;28;20029;-51
2021/09/21 03:39:44;;;;;;;7.10;4.47;;;;;;;17.95;65.35;99269.63;5053592;28;20095;-51
2021/09/21 03:42:10;;;;;;;7.38;3.88;;;;;;;18.12;65.04;99264.38;5053260;28;20102;-51
2021/09/21 03:44:36;;;;;;;4.75;3.42;;;;;;;18.00;64.78;99266.25;5053430;28;20402;-51
2021/09/21 03:47:02;;;;;;;10.25;5.28;;;;;;;17.90;65.32;99269.50;5053414;28;20020;-51
2021/09/21 03:49:28;;;;;;;6.07;3.38;;;;;;;18.07;64.83;99270.41;5051892;28;20112;-51
2021/09/21 03:51:57;;;;;;;9.90;4.20;;;;;;;18.10;64.70;99280.56;5053018;28;20151;-51
2021/09/21 03:54:23;;;;;;;11.25;4.75;;;;;;;18.20;63.98;99273.84;5050867;28;20037;-51
2021/09/21 03:56:49;;;;;;;7.20;2.92;;;;;;;17.92;63.93;99286.03;5051647;28;20515;-51
2021/09/21 03:59:15;;;;;;;5.10;3.83;;;;;;;17.66;64.53;99279.31;5053164;28;20040;-51
2021/09/21 04:01:41;;;;;;;6.95;3.72;;;;;;;17.49;65.35;99284.53;5052855;28;20506;-51
2021/09/21 04:04:07;;;;;;;5.47;3.35;;;;;;;17.57;65.16;99284.19;5051516;28;20025;-50
2021/09/21 04:06:34;;;;;;;9.68;3.65;;;;;;;17.53;65.22;99275.06;5051476;28;20113;-51
2021/09/21 04:09:00;;;;;;;3.85;2.30;;;;;;;17.62;64.93;99275.53;5052963;28;20388;-51
2021/09/21 04:11:26;;;;;;;7.03;3.25;;;;;;;17.47;64.92;99279.44;5052710;28;20483;-50
2021/09/21 04:13:52;;;;;;;8.95;2.67;;;;;;;17.24;65.19;99276.78;5034745;28;20039;-51
2021/09/21 04:16:19;;;;;;;6.65;2.55;;;;;;;17.26;65.77;99280.81;5052595;28;20021;-51
2021/09/21 04:18:45;;;;;;;6.45;2.55;;;;;;;17.44;65.58;99284.41;5052826;28;20047;-51
2021/09/21 04:21:11;;;;;;;6.63;3.25;;;;;;;17.59;65.00;99284.75;5050994;28;20041;-51
2021/09/21 04:23:40;;;;;;;10.70;3.28;;;;;;;17.70;64.72;99283.13;5051070;28;20024;-51
2021/09/21 04:26:09;;;;;;;12.10;4.75;;;;;;;17.75;65.00;99284.06;5052637;28;20399;-51
2021/09/21 04:28:36;;;;;;;15.18;5.43;;;;;;;18.05;64.31;99280.47;5051054;28;20025;-51
2021/09/21 04:31:11;;;;;;;9.45;3.83;;;;;;;18.33;63.51;99278.88;5052327;28;20110;-51
2021/09/21 04:33:39;;;;;;;13.55;9.38;;;;;;;18.67;62.80;99277.13;5051025;28;20029;-51
2021/09/21 04:36:07;;;;;;;9.20;4.57;;;;;;;18.95;61.83;99281.66;5052221;28;20032;-51
2021/09/21 04:38:34;;;;;;;7.50;2.45;;;;;;;19.10;60.82;99282.94;5052161;28;20037;-51
2021/09/21 04:41:00;;;;;;;4.25;2.08;;;;;;;18.85;60.96;99288.63;5052130;28;20032;-51
2021/09/21 04:43:26;;;;;;;7.97;2.75;;;;;;;18.53;61.52;99297.88;5052064;28;20024;-52
2021/09/21 04:45:52;;;;;;;14.75;5.82;;;;;;;18.30;62.36;99295.28;5050701;28;20402;-51
2021/09/21 04:48:17;;;;;;;13.25;10.05;;;;;;;18.39;62.40;99293.91;5052012;28;20056;-51
2021/09/21 04:50:43;;;;;;;9.73;4.47;;;;;;;18.47;62.44;99300.66;5050716;28;20088;-51
2021/09/21 04:53:10;;;;;;;20.35;5.03;;;;;;;18.49;62.56;99304.72;5052264;28;20506;-51
2021/09/21 04:55:36;;;;;;;83.35;74.53;;;;;;;18.45;62.81;99297.44;5051959;28;20063;-51
2021/09/21 04:58:02;;;;;;;17.63;8.60;;;;;;;18.31;62.62;99302.22;5052218;28;20036;-51
2021/09/21 05:00:28;;;;;;;18.15;4.15;;;;;;;18.05;63.39;99296.41;5050597;28;20032;-52
2021/09/21 05:02:53;;;;;;;20.98;10.63;;;;;;;18.30;63.47;99295.28;5050556;28;20407;-51
2021/09/21 05:05:20;;;;;;;21.95;10.43;;;;;;;18.54;62.57;99299.47;5051595;28;20112;-51
2021/09/21 05:07:46;;;;;;;38.88;35.22;;;;;;;18.72;62.38;99295.03;5051759;28;20104;-51
2021/09/21 05:10:12;;;;;;;32.45;29.25;;;;;;;19.00;61.61;99309.38;5051871;28;20068;-51
2021/09/21 05:12:37;;;;;;;14.15;6.70;;;;;;;19.29;60.95;99313.56;5050881;28;20105;-51
2021/09/21 05:15:04;;;;;;;17.13;4.95;;;;;;;19.53;60.05;99319.53;5051739;28;20398;-51
2021/09/21 05:17:30;;;;;;;9.77;3.53;;;;;;;19.56;59.44;99307.59;5051725;28;20032;-51
2021/09/21 05:19:58;;;;;;;10.50;4.22;;;;;;;19.36;59.74;99316.09;5051690;28;20052;-51
2021/09/21 05:22:24;;;;;;;10.63;4.13;;;;;;;19.25;59.97;99322.28;5051446;28;20045;-51
2021/09/21 05:24:50;;;;;;;11.40;3.97;;;;;;;19.29;60.23;99323.41;5050232;28;20035;-51
2021/09/21 05:27:15;;;;;;;8.55;3.80;;;;;;;19.27;59.84;99325.50;5050289;28;20502;-51
2021/09/21 05:29:41;;;;;;;12.45;7.30;;;;;;;19.26;60.21;99329.22;5051600;28;20560;-51
2021/09/21 05:32:07;;;;;;;17.65;14.85;;;;;;;19.33;60.35;99324.53;5050335;28;20021;-51
2021/09/21 05:34:33;;;;;;;7.60;4.35;;;;;;;19.20;60.14;99325.69;5050191;28;20045;-51
2021/09/21 05:36:58;;;;;;;22.63;6.75;;;;;;;18.99;61.57;99332.50;5051545;28;20029;-51
2021/09/21 05:39:24;;;;;;;21.92;7.65;;;;;;;18.84;62.52;99338.34;5051510;28;20065;-51
2021/09/21 05:41:53;;;;;;;42.78;6.30;;;;;;;18.85;62.27;99336.50;5050280;28;20112;-51
2021/09/21 05:44:19;;;;;;;20.00;4.20;;;;;;;18.62;62.03;99356.00;5050210;28;20025;-51
2021/09/21 05:46:45;;;;;;;247.73;223.15;;;;;;;18.27;62.77;99352.38;5050057;28;20553;-51
2021/09/21 05:49:10;;;;;;;71.50;63.78;;;;;;;18.38;63.55;99355.25;5051404;28;20096;-51
2021/09/21 05:51:39;;;;;;;350.05;313.60;;;;;;;18.54;63.26;99360.63;5051283;28;20563;-51
2021/09/21 05:54:08;;;;;;;224.73;200.25;;;;;;;18.82;62.13;99371.56;5050026;28;20495;-52
2021/09/21 05:56:34;;;;;;;45.33;37.55;;;;;;;18.98;61.75;99370.00;5049986;28;20021;-51
2021/09/21 05:59:00;;;;;;;21.15;12.23;;;;;;;18.93;61.19;99371.50;5051588;28;20028;-51
2021/09/21 06:01:26;;;;;;;14.80;8.90;;;;;;;18.69;61.10;99375.25;5051265;28;20569;-51
2021/09/21 06:03:51;;;;;;;31.83;23.50;;;;;;;18.60;62.10;99377.47;5049862;28;20022;-51
2021/09/21 06:06:17;;;;;;;26.42;20.65;;;;;;;18.90;61.68;99377.28;5050019;28;20025;-52
2021/09/21 06:08:43;;;;;;;20.05;5.20;;;;;;;19.11;60.61;99377.66;5051439;28;20021;-51
2021/09/21 06:11:09;;;;;;;14.20;5.32;;;;;;;18.85;61.24;99379.03;5051239;28;20506;-51
2021/09/21 06:13:35;;;;;;;11.30;6.40;;;;;;;18.78;63.78;99376.50;5051132;28;20021;-51
2021/09/21 06:16:01;;;;;;;15.95;5.15;;;;;;;18.69;63.71;99378.75;5049836;28;20033;-51
2021/09/21 06:18:27;;;;;;;8.80;4.22;;;;;;;18.56;63.67;99379.81;5054416;28;20072;-51
2021/09/21 06:20:52;;;;;;;11.27;5.00;;;;;;;18.54;63.59;99381.09;5053207;28;20041;-51
2021/09/21 06:23:18;;;;;;;13.57;4.60;;;;;;;18.39;63.10;99389.56;5053412;28;20021;-51
2021/09/21 06:25:45;;;;;;;192.23;167.23;;;;;;;18.10;63.89;99396.63;5054661;28;20395;-51
2021/09/21 06:28:11;;;;;;;177.15;141.35;;;;;;;18.17;64.59;99386.72;5054639;28;20025;-51
2021/09/21 06:30:37;;;;;;;20.08;6.75;;;;;;;18.61;63.21;99389.72;5053289;28;20028;-51
2021/09/21 06:33:03;;;;;;;17.65;6.95;;;;;;;18.61;62.03;99392.38;5054625;28;20482;-51
2021/09/21 06:35:29;;;;;;;16.20;10.25;;;;;;;18.46;62.30;99397.41;5054468;28;20132;-51
2021/09/21 06:37:54;;;;;;;5.43;3.58;;;;;;;18.38;61.94;99397.75;5054525;28;20060;-51
2021/09/21 06:40:21;;;;;;;9.90;4.25;;;;;;;18.33;62.24;99395.78;5053253;28;20017;-51
2021/09/21 06:42:46;;;;;;;17.92;12.40;;;;;;;18.28;62.46;99396.50;5053109;28;20155;-51
2021/09/21 06:45:16;;;;;;;6.05;5.43;;;;;;;18.32;62.26;99395.00;5054167;28;20108;-51
2021/09/21 06:47:43;;;;;;;10.95;4.90;;;;;;;18.32;62.15;99397.66;5054266;28;20108;-51
2021/09/21 06:50:11;;;;;;;10.50;6.03;;;;;;;18.27;62.13;99402.88;5054316;28;20018;-51
2021/09/21 06:52:37;;;;;;;12.95;4.65;;;;;;;18.19;62.63;99399.72;5053052;28;20056;-51
2021/09/21 06:55:04;;;;;;;9.45;4.93;;;;;;;18.15;62.77;99405.53;5052861;28;20469;-51
2021/09/21 06:57:30;;;;;;;9.88;5.32;;;;;;;18.13;63.00;99420.91;5054104;28;20033;-51
2021/09/21 06:59:57;;;;;;;8.50;5.68;;;;;;;18.21;63.12;99427.72;5054367;28;20163;-51
2021/09/21 07:02:24;;;;;;;11.88;3.85;;;;;;;18.44;62.75;99418.09;5053966;28;20028;-51
2021/09/21 07:04:50;;;;;;;9.88;4.22;;;;;;;18.80;61.68;99424.97;5053856;28;20024;-51
2021/09/21 07:07:15;;;;;;;5.80;3.92;;;;;;;19.58;60.00;99428.00;5054206;28;20029;-51
2021/09/21 07:09:41;;;;;;;12.32;9.13;;;;;;;20.57;58.10;99423.06;5053880;28;20521;-51
2021/09/21 07:12:07;;;;;;;17.13;6.13;;;;;;;21.94;54.62;99426.31;5053881;28;20422;-51
2021/09/21 07:14:33;;;;;;;6.28;3.15;;;;;;;22.79;51.86;99421.94;5053794;28;20036;-51
2021/09/21 07:16:59;;;;;;;10.45;5.20;;;;;;;22.67;50.99;99414.94;5053752;28;20069;-51
2021/09/21 07:19:24;;;;;;;26.70;16.65;;;;;;;22.39;51.80;99431.41;5052409;28;20028;-51
2021/09/21 07:21:50;;;;;;;6.55;4.18;;;;;;;22.17;51.52;99434.19;5053460;28;20167;-51
2021/09/21 07:24:17;;;;;;;15.13;13.65;;;;;;;21.89;52.53;99439.66;5053495;28;20017;-51
2021/09/21 07:26:44;;;;;;;11.93;6.40;;;;;;;21.81;52.22;99437.44;5053463;28;20035;-51
2021/09/21 07:29:09;;;;;;;6.03;4.38;;;;;;;21.51;52.88;99441.47;5053724;28;20400;-51
2021/09/21 07:31:35;;;;;;;31.05;22.42;;;;;;;21.30;52.67;99440.44;5053494;28;20492;-51
2021/09/21 07:34:03;;;;;;;16.42;7.10;;;;;;;21.16;53.36;99449.91;5053465;28;20495;-50
2021/09/21 07:36:30;;;;;;;7.20;5.63;;;;;;;21.18;53.27;99445.13;5053548;28;20035;-51
2021/09/21 07:38:56;;;;;;;5.72;3.90;;;;;;;21.35;52.88;99445.81;5053334;28;20029;-51
2021/09/21 07:41:21;;;;;;;13.07;4.65;;;;;;;21.39;52.71;99454.16;5053280;28;20040;-52
2021/09/21 07:43:47;;;;;;;4.20;3.80;;;;;;;21.33;52.53;99455.16;5053198;28;20045;-51
2021/09/21 07:46:14;;;;;;;8.18;3.50;;;;;;;21.40;52.27;99460.28;5035285;28;20394;-51
2021/09/21 07:48:40;;;;;;;12.90;6.20;;;;;;;21.30;52.36;99471.66;5053214;28;20024;-51
2021/09/21 07:51:05;;;;;;;12.25;4.35;;;;;;;21.04;53.59;99462.56;5053127;28;20092;-51
2021/09/21 07:53:31;;;;;;;6.38;4.32;;;;;;;20.90;53.76;99470.16;5051843;28;20062;-51
2021/09/21 07:56:00;;;;;;;4.28;2.97;;;;;;;20.66;54.34;99464.25;5053035;28;20048;-51
2021/09/21 07:58:26;;;;;;;8.30;3.40;;;;;;;20.66;54.44;99470.38;5052990;28;20021;-51
2021/09/21 08:00:54;;;;;;;11.48;9.40;;;;;;;20.73;54.89;99464.88;5051541;28;20032;-51
2021/09/21 08:03:23;;;;;;;8.75;3.10;;;;;;;21.00;54.31;99472.94;5052707;28;20100;-51
2021/09/21 08:05:49;;;;;;;10.43;3.40;;;;;;;21.17;53.43;99466.72;5052810;28;20059;-51
2021/09/21 08:08:16;;;;;;;4.68;3.30;;;;;;;21.23;53.43;99474.53;5052826;28;20021;-51
2021/09/21 08:10:43;;;;;;;5.40;3.13;;;;;;;21.17;53.13;99477.38;5052908;28;20453;-51
2021/09/21 08:13:09;;;;;;;8.30;3.13;;;;;;;21.00;53.84;99485.47;5052653;28;20048;-51
2021/09/21 08:15:35;;;;;;;10.80;3.00;;;;;;;20.94;53.45;99487.28;5052838;28;20029;-51
2021/09/21 08:18:01;;;;;;;7.05;2.70;;;;;;;20.80;53.73;99489.50;5051237;28;20029;-51
2021/09/21 08:20:28;;;;;;;8.32;3.00;;;;;;;20.49;54.15;99489.06;5050976;28;20056;-51
2021/09/21 08:22:55;;;;;;;4.60;2.90;;;;;;;20.26;54.72;99498.09;5018361;28;20178;-51
2021/09/21 08:25:21;;;;;;;5.43;3.10;;;;;;;20.07;55.38;99494.84;5051078;28;20029;-51
2021/09/21 08:27:49;;;;;;;9.10;3.03;;;;;;;20.03;55.63;99495.59;5051163;28;20051;-51
2021/09/21 08:30:17;;;;;;;5.63;3.22;;;;;;;20.02;55.73;99507.28;5052395;28;20434;-51
2021/09/21 08:32:43;;;;;;;6.40;3.70;;;;;;;19.99;55.40;99510.44;5052267;28;20104;-51
2021/09/21 08:35:09;;;;;;;5.13;2.28;;;;;;;19.95;55.75;99505.59;5050983;28;20115;-51
2021/09/21 08:37:35;;;;;;;4.75;4.25;;;;;;;19.94;55.76;99517.31;5050979;28;20029;-51
2021/09/21 08:40:00;;;;;;;5.72;2.10;;;;;;;20.06;55.35;99511.06;5052014;28;20021;-52
2021/09/21 08:42:26;;;;;;;6.25;2.17;;;;;;;20.09;55.33;99508.75;5052194;28;20029;-51
2021/09/21 08:44:53;;;;;;;8.45;3.05;;;;;;;20.16;55.17;99511.25;5052125;28;20017;-51
2021/09/21 08:47:20;;;;;;;9.38;5.28;;;;;;;20.22;54.92;99514.78;5052015;28;20035;-51
2021/09/21 08:49:46;;;;;;;7.60;2.30;;;;;;;20.30;54.79;99517.06;5052004;28;20021;-51
2021/09/21 08:52:13;;;;;;;4.68;2.85;;;;;;;20.42;54.41;99514.28;5052326;28;20465;-51
2021/09/21 08:54:38;;;;;;;3.65;2.95;;;;;;;20.49;54.27;99512.28;5051953;28;20048;-51
2021/09/21 08:57:05;;;;;;;4.63;2.00;;;;;;;20.63;53.81;99515.44;5052214;28;20025;-51
2021/09/21 08:59:38;;;;;;;9.15;3.13;;;;;;;20.80;53.41;99521.53;5051884;28;20017;-51
2021/09/21 09:02:09;;;;;;;6.03;3.85;;;;;;;21.07;52.89;99510.13;5052068;28;20037;-51
2021/09/21 09:04:36;;;;;;;7.05;4.00;;;;;;;21.23;52.48;99525.25;5051774;28;20033;-51
2021/09/21 09:07:04;;;;;;;4.50;2.17;;;;;;;21.38;52.16;99519.28;5051732;28;20029;-51
2021/09/21 09:09:35;;;;;;;9.30;4.22;;;;;;;21.48;51.91;99516.75;5051798;28;20029;-50
2021/09/21 09:12:06;;;;;;;5.20;2.15;;;;;;;21.68;51.01;99518.00;5051782;28;20182;-51
2021/09/21 09:14:37;;;;;;;13.05;8.23;;;;;;;21.62;51.46;99524.38;5051759;28;20029;-50
2021/09/21 09:17:11;;;;;;;4.75;2.10;;;;;;;22.00;50.93;99531.38;5051979;28;20443;-50
2021/09/21 09:19:42;;;;;;;4.75;2.70;;;;;;;22.35;49.94;99527.41;5034327;28;20021;-51
2021/09/21 09:22:17;;;;;;;8.63;4.20;;;;;;;22.69;49.59;99527.06;5051487;28;20056;-51
2021/09/21 09:24:48;;;;;;;4.65;2.03;;;;;;;22.72;48.73;99529.25;5051624;28;20033;-51
2021/09/21 09:27:14;;;;;;;4.53;3.03;;;;;;;22.60;48.95;99534.00;5051575;28;20029;-51
2021/09/21 09:29:58;;;;;;;5.25;2.20;;;;;;;22.45;49.00;99532.00;5050287;28;20167;-51
2021/09/21 09:32:24;;;;;;;6.78;3.03;;;;;;;22.03;49.20;99530.88;5050242;28;20037;-51
2021/09/21 09:34:50;;;;;;;14.02;8.68;;;;;;;21.80;49.89;99534.69;5051530;28;20033;-51
2021/09/21 09:37:18;;;;;;;4.35;2.42;;;;;;;21.79;50.37;99532.25;5051459;28;20032;-51
2021/09/21 09:39:46;;;;;;;8.13;2.53;;;;;;;21.60;50.39;99535.28;5051501;28;20030;-51
2021/09/21 09:42:13;;;;;;;8.30;5.78;;;;;;;21.49;50.98;99530.91;5050254;28;20031;-50
2021/09/21 09:44:40;;;;;;;7.35;2.63;;;;;;;21.78;50.30;99533.34;5051371;28;20028;-50
2021/09/21 09:47:07;;;;;;;4.50;1.88;;;;;;;23.23;48.51;99526.81;5051372;28;20104;-51
2021/09/21 09:49:36;;;;;;;4.63;2.20;;;;;;;24.62;44.89;99527.72;5051393;28;20025;-50
2021/09/21 09:52:14;;;;;;;4.80;1.73;;;;;;;26.33;42.29;99523.78;5052326;28;20029;-50
2021/09/21 09:54:42;;;;;;;8.00;1.85;;;;;;;27.28;39.54;99516.00;5054127;28;20033;-51
2021/09/21 09:57:10;;;;;;;3.92;1.73;;;;;;;27.94;37.86;99510.75;5053985;28;20033;-52
2021/09/21 09:59:37;;;;;;;2.28;1.48;;;;;;;29.67;35.35;99511.09;5055214;28;20017;-52
2021/09/21 10:02:03;;;;;;;5.63;2.10;;;;;;;30.37;33.82;99509.66;5055166;28;20367;-51
2021/09/21 10:04:29;;;;;;;5.28;1.80;;;;;;;30.30;33.39;99512.00;5055101;28;20111;-51
2021/09/21 10:06:56;;;;;;;6.32;1.75;;;;;;;29.97;33.91;99522.31;5055035;28;20090;-51
2021/09/21 10:09:22;;;;;;;5.90;1.42;;;;;;;28.77;34.91;99527.88;5055019;28;20399;-51
2021/09/21 10:11:55;;;;;;;3.45;1.70;;;;;;;27.82;36.22;99522.75;5055033;28;20035;-52
2021/09/21 10:14:22;;;;;;;2.03;1.30;;;;;;;26.89;37.99;99517.03;5055005;28;20095;-51
2021/09/21 10:17:00;;;;;;;7.03;1.58;;;;;;;25.99;39.23;99521.13;5054888;28;20060;-51
2021/09/21 10:19:27;;;;;;;6.53;1.80;;;;;;;25.99;39.89;99521.94;5054892;28;20036;-51
2021/09/21 10:21:55;;;;;;;3.22;1.52;;;;;;;26.07;39.45;99518.63;5053258;28;20044;-50
2021/09/21 10:24:44;;;;;;;7.43;4.20;;;;;;;26.19;39.89;99518.28;5054757;28;20427;-52
2021/09/21 10:27:13;;;;;;;14.90;6.75;;;;;;;26.76;38.95;99515.03;5054815;28;20025;-52
2021/09/21 10:29:39;;;;;;;6.80;3.35;;;;;;;27.70;37.48;99517.81;5054692;28;20055;-51
2021/09/21 10:32:16;;;;;;;9.38;5.53;;;;;;;29.50;34.79;99516.38;5053331;28;20032;-51
2021/09/21 10:34:47;;;;;;;6.65;2.03;;;;;;;30.43;32.88;99513.81;5053317;28;20025;-52
2021/09/21 10:37:17;;;;;;;5.53;1.60;;;;;;;30.46;32.35;99521.34;5054478;28;20036;-51
2021/09/21 10:39:43;;;;;;;3.33;1.80;;;;;;;29.51;33.32;99517.97;5053187;28;20027;-52
2021/09/21 10:42:12;;;;;;;3.20;2.00;;;;;;;28.34;35.09;99519.22;5054725;28;20025;-52
2021/09/21 10:44:56;;;;;;;4.95;1.77;;;;;;;27.16;37.58;99518.31;5053052;28;20025;-51
2021/09/21 10:47:30;;;;;;;5.75;2.28;;;;;;;26.10;38.84;99522.66;5054282;28;20033;-52
2021/09/21 10:50:10;;;;;;;8.23;2.30;;;;;;;25.29;40.75;99532.84;5054381;28;20467;-51
2021/09/21 10:52:36;;;;;;;6.05;2.97;;;;;;;25.00;41.29;99521.97;5054198;28;20029;-51
2021/09/21 10:55:08;;;;;;;8.15;1.80;;;;;;;25.12;41.50;99523.25;5054226;28;20453;-51
2021/09/21 10:57:44;;;;;;;7.07;1.73;;;;;;;25.53;41.22;99530.31;5054139;28;20104;-52
2021/09/21 11:00:16;;;;;;;4.35;1.85;;;;;;;27.02;39.08;99520.91;5054075;28;20059;-51
2021/09/21 11:02:44;;;;;;;14.48;3.08;;;;;;;28.66;36.54;99521.88;5052492;28;20029;-51
2021/09/21 11:05:16;;;;;;;5.18;2.13;;;;;;;29.91;34.01;99524.34;5053953;28;20127;-52
2021/09/21 11:07:52;;;;;;;4.03;2.30;;;;;;;31.12;32.14;99514.38;5052608;28;20136;-52
2021/09/21 11:10:19;;;;;;;5.93;1.90;;;;;;;32.37;29.83;99508.19;5053936;28;20024;-51
2021/09/21 11:12:47;;;;;;;10.15;1.65;;;;;;;33.14;27.87;99508.97;5053912;28;20084;-49
2021/09/21 11:15:13;;;;;;;2.83;1.77;;;;;;;32.10;28.97;99509.41;5053772;28;20028;-49
2021/09/21 11:17:39;;;;;;;7.53;1.90;;;;;;;30.57;30.58;99515.66;5053780;28;20051;-52
2021/09/21 11:20:05;;;;;;;10.55;2.05;;;;;;;29.41;31.84;99519.00;5053476;28;20487;-52
2021/09/21 11:22:32;;;;;;;5.75;2.30;;;;;;;28.60;33.62;99522.28;5053660;28;20020;-51
2021/09/21 11:25:10;;;;;;;5.88;2.22;;;;;;;28.06;34.25;99522.66;5054065;28;20441;-51
2021/09/21 11:27:41;;;;;;;12.80;2.13;;;;;;;27.80;34.82;99526.84;5052279;28;20550;-51
2021/09/21 11:30:10;;;;;;;9.95;2.22;;;;;;;28.37;34.98;99521.31;5052214;28;20422;-52
2021/09/21 11:32:37;;;;;;;12.75;2.08;;;;;;;29.07;33.93;99515.63;5053442;28;20191;-51
2021/09/21 11:35:07;;;;;;;5.53;2.10;;;;;;;29.56;32.42;99518.66;5053470;28;20419;-51
2021/09/21 11:37:33;;;;;;;10.18;2.83;;;;;;;29.35;32.45;99523.72;5053745;28;20028;-51
2021/09/21 11:40:02;;;;;;;7.85;1.77;;;;;;;29.20;32.49;99522.16;5053476;28;20036;-50
2021/09/21 11:42:31;;;;;;;9.38;2.05;;;;;;;29.41;32.77;99508.97;5053352;28;20017;-51